Gela, Italy

12:51 AM CEST on August 31, 2015 (GMT +0200)
ISICILIA20 | | Change Station
CLOSE
Current Station
Personal Weather Station
Location: Gela, Caltanissetta
Elevation: 164 ft
Nearby Weather Stations

Elev 164 ft 37.08 °N, 14.22 °E | Updated 12 seconds ago

Clear
Clear
77.0 °F
Feels Like 79 °F
N
2.3
Wind Variable Wind from SSE
Gusts 2.3 mph

Today
High -- | Low -- °F
--% Chance of Precip.
Yesterday
High -- | Low -- °F
Precip. -- in
6:32 AM 7:33 PM
Full, 98% visible
Pressure 30.12 in
Visibility -9999.0 miles
Clouds
Heat Index 79 °F
Dew Point 64 °F
Humidity 65%
Rainfall 0.00 in
Snow Depth Not available.
UV 0.0 out of 12
Pollen Not available.
Air Quality Not available.
Flu Activity Not available.
METAR LICB 302050Z 07003KT CAVOK 22/20 Q1020
Pressure 30.12 in
Visibility -9999.0 miles
Clouds
Heat Index 79 °F
Dew Point 64 °F
Humidity 65%
Rainfall 0.00 in
Snow Depth Not available.
UV 0.0 out of 12
Pollen Not available.
Air Quality Not available.
Flu Activity Not available.
METAR LICB 302050Z 07003KT CAVOK 22/20 Q1020

10-Day Weather Forecast

×

Almanac

Astronomy

Aug. 31, 2015 Rise Set
Actual Time
Civil Twilight
Nautical Twilight
Astronomical Twilight
Moon
Length of Visible Light
Length of Day
Tomorrow will be .
, % of the Moon is Illuminated

Today's Extremes

Country Highs Country Lows

Community

WunderPhotos

Upload Photos

1,851,075 photos uploaded!

WunderBlogs® & News

Nearby

Air Quality

  Air Quality AQ Index Pollutant
Not available.

Snow Depth

Station Depth Elevation

Earthquake Activity

City Distance Mag. Time & Date
Minimum magnitude displayed is 2.5.

Coastal Water Temperatures

Place Temperature

Stations

Nearby Weather Stations

Station Location Temp. Windchill Dew Point Humidity Wind Precip. Elev Updated Type